Time;durP1;ratioP1;P1;durP2;ratioP2;P2;SDS_P1;SDS_P2;PMS_P1;PMS_P2;Temp;Humidity;BMP_temperature;BMP_pressure;BME280_temperature;BME280_humidity;BME280_pressure;Samples;Min_cycle;Max_cycle;Signal;HPM_P1;HPM_P2
2022/05/11 00:00:56;;;;;;;12.40;4.33;;;;;;;;;;6101543;23;20183;-85
2022/05/11 00:03:26;;;;;;;9.97;3.40;;;;;;;;;;6126741;23;20210;-85
2022/05/11 00:05:54;;;;;;;12.37;4.03;;;;;;;;;;6100856;23;20179;-85
2022/05/11 00:08:23;;;;;;;4.90;2.07;;;;;;;;;;6101525;23;20176;-85
2022/05/11 00:10:53;;;;;;;9.00;4.60;;;;;;;;;;6101151;23;20181;-85
2022/05/11 00:13:22;;;;;;;6.57;2.33;;;;;;;;;;6127250;23;20171;-83
2022/05/11 00:15:51;;;;;;;1.20;1.20;;;;;;;;;;6101411;23;20194;-84
2022/05/11 00:18:19;;;;;;;7.60;3.37;;;;;;;;;;6101101;23;20181;-84
2022/05/11 00:20:49;;;;;;;7.83;3.63;;;;;;;;;;6126926;23;20186;-83
2022/05/11 00:23:17;;;;;;;7.73;3.83;;;;;;;;;;6101407;23;20201;-84
2022/05/11 00:25:45;;;;;;;1.47;1.37;;;;;;;;;;6101548;23;20183;-84
2022/05/11 00:28:14;;;;;;;3.27;1.57;;;;;;;;;;6101313;23;20186;-84
2022/05/11 00:30:42;;;;;;;12.67;2.83;;;;;;;;;;6100968;23;20230;-84
2022/05/11 00:33:12;;;;;;;1.70;0.93;;;;;;;;;;6126974;23;20192;-84
2022/05/11 00:35:41;;;;;;;4.33;2.27;;;;;;;;;;6101259;23;20183;-84
2022/05/11 00:38:11;;;;;;;10.17;2.40;;;;;;;;;;6125442;23;20266;-84
2022/05/11 00:40:43;;;;;;;9.33;1.87;;;;;;;;;;6101206;23;20183;-84
2022/05/11 00:43:12;;;;;;;6.03;3.23;;;;;;;;;;6100526;23;20191;-84
2022/05/11 00:45:43;;;;;;;9.93;3.47;;;;;;;;;;6100572;23;20183;-84
2022/05/11 00:50:59;;;;;;;2.03;1.77;;;;;;;;;;6101308;23;20176;-84
2022/05/11 00:53:29;;;;;;;13.67;3.93;;;;;;;;;;6126443;23;20179;-84
2022/05/11 00:55:59;;;;;;;4.07;1.97;;;;;;;;;;6101051;23;20281;-84
2022/05/11 00:58:32;;;;;;;3.70;2.00;;;;;;;;;;6101289;23;20186;-84
2022/05/11 01:01:00;;;;;;;18.10;1.83;;;;;;;;;;6100676;23;20179;-84
2022/05/11 01:03:31;;;;;;;3.80;2.37;;;;;;;;;;6100636;23;20211;-84
2022/05/11 01:05:59;;;;;;;12.17;3.97;;;;;;;;;;6126195;23;20222;-84
2022/05/11 01:08:30;;;;;;;5.83;2.93;;;;;;;;;;6100914;23;20213;-84
2022/05/11 01:10:58;;;;;;;11.67;3.70;;;;;;;;;;6100361;23;20204;-84
2022/05/11 01:13:26;;;;;;;4.90;2.97;;;;;;;;;;6100019;23;20267;-84
2022/05/11 01:15:55;;;;;;;2.20;2.00;;;;;;;;;;6100361;23;20183;-84
2022/05/11 01:18:24;;;;;;;6.37;2.87;;;;;;;;;;6100163;23;20263;-84
2022/05/11 01:20:53;;;;;;;5.47;3.10;;;;;;;;;;6100930;23;20187;-84
2022/05/11 01:23:24;;;;;;;1.40;0.87;;;;;;;;;;6100658;23;20199;-84
2022/05/11 01:26:01;;;;;;;7.93;3.93;;;;;;;;;;6100673;23;20183;-84
2022/05/11 01:28:29;;;;;;;6.20;2.50;;;;;;;;;;6126225;23;20255;-84
2022/05/11 01:31:02;;;;;;;6.80;3.37;;;;;;;;;;6100773;23;20183;-84
2022/05/11 01:33:31;;;;;;;2.57;1.80;;;;;;;;;;6100841;23;20191;-84
2022/05/11 01:36:03;;;;;;;8.17;3.53;;;;;;;;;;6126326;23;20187;-84
2022/05/11 01:38:34;;;;;;;3.27;2.97;;;;;;;;;;6100298;23;20187;-84
2022/05/11 01:41:04;;;;;;;10.67;4.43;;;;;;;;;;6100735;23;20192;-84
2022/05/11 01:43:33;;;;;;;1.87;1.50;;;;;;;;;;6100212;23;20200;-84
2022/05/11 01:46:02;;;;;;;6.13;2.03;;;;;;;;;;6100458;23;20183;-84
2022/05/11 01:48:31;;;;;;;6.87;2.00;;;;;;;;;;6100312;23;20183;-84
2022/05/11 01:51:00;;;;;;;8.70;2.57;;;;;;;;;;6126300;23;20179;-84
2022/05/11 01:53:28;;;;;;;6.23;2.07;;;;;;;;;;6126222;23;20172;-84
2022/05/11 01:55:57;;;;;;;2.13;1.93;;;;;;;;;;6126070;23;20190;-84
2022/05/11 01:58:27;;;;;;;5.30;4.03;;;;;;;;;;6100001;23;20177;-84
2022/05/11 02:00:55;;;;;;;8.20;4.23;;;;;;;;;;6124994;23;20175;-84
2022/05/11 02:03:24;;;;;;;3.13;1.57;;;;;;;;;;6100034;23;20239;-85
2022/05/11 02:08:39;;;;;;;1.03;1.03;;;;;;;;;;6100542;23;20183;-84
2022/05/11 02:11:08;;;;;;;7.23;2.73;;;;;;;;;;6100661;23;20187;-85
2022/05/11 02:13:38;;;;;;;10.27;3.60;;;;;;;;;;6100432;23;20199;-84
2022/05/11 02:16:06;;;;;;;4.17;2.30;;;;;;;;;;6126116;23;20182;-84
2022/05/11 02:18:35;;;;;;;13.20;4.67;;;;;;;;;;6125875;23;20179;-85
2022/05/11 02:21:03;;;;;;;5.40;2.40;;;;;;;;;;6100436;23;20190;-84
2022/05/11 02:23:32;;;;;;;14.03;3.80;;;;;;;;;;6100194;23;20204;-84
2022/05/11 02:26:00;;;;;;;7.60;3.77;;;;;;;;;;6100276;23;20185;-84
2022/05/11 02:28:29;;;;;;;11.73;3.87;;;;;;;;;;6125661;23;20176;-84
2022/05/11 02:31:05;;;;;;;12.60;3.97;;;;;;;;;;6100570;23;20178;-84
2022/05/11 02:33:33;;;;;;;8.73;3.60;;;;;;;;;;6100589;23;20185;-84
2022/05/11 02:36:02;;;;;;;6.90;2.57;;;;;;;;;;6126161;23;20185;-84
2022/05/11 02:38:33;;;;;;;5.47;2.00;;;;;;;;;;6124878;23;20230;-84
2022/05/11 02:41:05;;;;;;;4.40;2.07;;;;;;;;;;6100513;23;20180;-84
2022/05/11 02:43:34;;;;;;;6.50;2.33;;;;;;;;;;6100259;23;20249;-84
2022/05/11 02:46:02;;;;;;;7.77;2.50;;;;;;;;;;6100450;23;20189;-84
2022/05/11 02:48:34;;;;;;;1.07;0.77;;;;;;;;;;6100296;23;20215;-84
2022/05/11 02:51:03;;;;;;;2.57;0.90;;;;;;;;;;6100189;23;20188;-84
2022/05/11 02:53:33;;;;;;;8.70;2.37;;;;;;;;;;6100145;23;20194;-85
2022/05/11 02:56:02;;;;;;;5.97;2.40;;;;;;;;;;6099938;23;20179;-84
2022/05/11 02:58:32;;;;;;;4.57;2.30;;;;;;;;;;6100724;23;20180;-84
2022/05/11 03:01:01;;;;;;;2.43;1.10;;;;;;;;;;6100187;23;20274;-84
2022/05/11 03:03:33;;;;;;;3.40;2.77;;;;;;;;;;6099736;23;20295;-84
2022/05/11 03:06:05;;;;;;;4.70;1.50;;;;;;;;;;6100267;23;20270;-84
2022/05/11 03:08:34;;;;;;;1.00;1.00;;;;;;;;;;6125546;23;20179;-84
2022/05/11 03:11:03;;;;;;;7.03;2.20;;;;;;;;;;6099781;23;20187;-84
2022/05/11 03:13:31;;;;;;;8.47;2.27;;;;;;;;;;6125723;23;20175;-84
2022/05/11 03:16:00;;;;;;;5.80;2.40;;;;;;;;;;6100375;23;20183;-84
2022/05/11 03:18:31;;;;;;;3.40;1.90;;;;;;;;;;6100501;23;20261;-85
2022/05/11 03:21:03;;;;;;;3.70;2.10;;;;;;;;;;6100069;23;20234;-85
2022/05/11 03:23:32;;;;;;;4.23;2.20;;;;;;;;;;6099512;23;20180;-85
2022/05/11 03:26:00;;;;;;;3.20;1.60;;;;;;;;;;6125487;23;20186;-84
2022/05/11 03:28:29;;;;;;;7.00;3.13;;;;;;;;;;6099759;23;20186;-83
2022/05/11 03:30:57;;;;;;;10.43;3.53;;;;;;;;;;6101333;23;20183;-83
2022/05/11 03:36:15;;;;;;;4.00;1.77;;;;;;;;;;6101818;23;20187;-84
2022/05/11 03:38:44;;;;;;;7.70;2.97;;;;;;;;;;6127328;23;20174;-83
2022/05/11 03:41:15;;;;;;;3.13;2.03;;;;;;;;;;6101846;23;20265;-83
2022/05/11 03:43:43;;;;;;;4.40;1.67;;;;;;;;;;6127232;23;20178;-83
2022/05/11 03:46:15;;;;;;;1.47;1.33;;;;;;;;;;6127466;23;20167;-83
2022/05/11 03:48:46;;;;;;;3.43;1.37;;;;;;;;;;6101434;23;20261;-83
2022/05/11 03:51:16;;;;;;;7.50;2.97;;;;;;;;;;6101976;23;20179;-84
2022/05/11 03:53:45;;;;;;;8.70;2.90;;;;;;;;;;6101492;23;20190;-83
2022/05/11 03:56:18;;;;;;;8.70;2.43;;;;;;;;;;6101270;23;20289;-83
2022/05/11 03:58:46;;;;;;;3.50;2.00;;;;;;;;;;6101270;23;20192;-84
2022/05/11 04:01:17;;;;;;;7.53;3.63;;;;;;;;;;6101874;23;20174;-83
2022/05/11 04:03:47;;;;;;;10.93;3.47;;;;;;;;;;6101526;23;20223;-83
2022/05/11 04:06:18;;;;;;;8.90;3.23;;;;;;;;;;6101156;23;20182;-83
2022/05/11 04:08:47;;;;;;;4.57;1.23;;;;;;;;;;6101059;23;20243;-83
2022/05/11 04:11:16;;;;;;;7.83;2.23;;;;;;;;;;6127128;23;20174;-84
2022/05/11 04:13:46;;;;;;;13.53;2.30;;;;;;;;;;6127061;23;20234;-83
2022/05/11 04:16:19;;;;;;;8.47;2.43;;;;;;;;;;6125907;23;20193;-84
2022/05/11 04:18:48;;;;;;;2.23;1.67;;;;;;;;;;6101143;23;20183;-83
2022/05/11 04:21:18;;;;;;;6.20;1.90;;;;;;;;;;6127196;23;20180;-83
2022/05/11 04:23:46;;;;;;;4.07;2.43;;;;;;;;;;6126620;23;20254;-84
2022/05/11 04:26:18;;;;;;;4.47;2.23;;;;;;;;;;6127215;23;20282;-83
2022/05/11 04:28:47;;;;;;;5.60;1.10;;;;;;;;;;6101419;23;20252;-84
2022/05/11 04:31:18;;;;;;;3.60;1.70;;;;;;;;;;6126863;23;20235;-83
2022/05/11 04:33:47;;;;;;;8.97;3.67;;;;;;;;;;6100830;23;20190;-83
2022/05/11 04:36:15;;;;;;;2.60;1.43;;;;;;;;;;6101051;23;20229;-83
2022/05/11 04:38:48;;;;;;;3.03;1.87;;;;;;;;;;6101207;23;20183;-83
2022/05/11 04:41:19;;;;;;;9.57;2.60;;;;;;;;;;6101219;23;20241;-83
2022/05/11 04:43:52;;;;;;;6.93;1.67;;;;;;;;;;6100811;23;20183;-83
2022/05/11 04:46:21;;;;;;;5.63;2.03;;;;;;;;;;6101265;23;20227;-83
2022/05/11 04:49:16;;;;;;;4.60;1.60;;;;;;;;;;6101109;23;20180;-84
2022/05/11 04:51:40;;;;;;;1.80;1.63;;;;;;;;;;6100593;23;20186;-84
2022/05/11 04:54:11;;;;;;;9.40;2.50;;;;;;;;;;6100405;23;20179;-84
2022/05/11 04:56:40;;;;;;;3.33;2.30;;;;;;;;;;6100790;23;20179;-84
2022/05/11 04:59:08;;;;;;;6.80;1.57;;;;;;;;;;6100987;23;20175;-84
2022/05/11 05:01:37;;;;;;;18.50;3.13;;;;;;;;;;6100794;23;20178;-84
2022/05/11 05:04:06;;;;;;;6.20;2.13;;;;;;;;;;6100470;23;20203;-84
2022/05/11 05:06:34;;;;;;;10.20;2.97;;;;;;;;;;6100465;23;20237;-84
2022/05/11 05:09:03;;;;;;;2.53;0.87;;;;;;;;;;6101006;23;20187;-84
2022/05/11 05:11:34;;;;;;;4.27;2.20;;;;;;;;;;6100863;23;20181;-84
2022/05/11 05:14:04;;;;;;;3.13;2.33;;;;;;;;;;6126315;23;20222;-85
2022/05/11 05:16:33;;;;;;;9.23;2.10;;;;;;;;;;6100184;23;20270;-84
2022/05/11 05:19:02;;;;;;;2.90;2.13;;;;;;;;;;6100624;23;20180;-84
2022/05/11 05:21:31;;;;;;;6.43;1.77;;;;;;;;;;6100461;23;20190;-84
2022/05/11 05:23:59;;;;;;;9.10;4.10;;;;;;;;;;6100887;23;20180;-84
2022/05/11 05:26:28;;;;;;;7.43;2.97;;;;;;;;;;6100707;23;20194;-84
2022/05/11 05:31:44;;;;;;;7.10;2.63;;;;;;;;;;6100614;23;20178;-84
2022/05/11 05:34:13;;;;;;;7.60;2.53;;;;;;;;;;6126589;23;20258;-84
2022/05/11 05:36:42;;;;;;;4.60;2.63;;;;;;;;;;6125776;23;20171;-84
2022/05/11 05:39:10;;;;;;;3.03;1.43;;;;;;;;;;6099487;23;20266;-84
2022/05/11 05:41:48;;;;;;;12.30;2.87;;;;;;;;;;6126036;23;20172;-84
2022/05/11 05:44:18;;;;;;;8.07;2.57;;;;;;;;;;6126277;23;20167;-84
2022/05/11 05:46:47;;;;;;;17.47;3.83;;;;;;;;;;6100301;23;20207;-84
2022/05/11 05:49:18;;;;;;;8.80;2.87;;;;;;;;;;6100765;23;20179;-84
2022/05/11 05:51:50;;;;;;;5.83;3.03;;;;;;;;;;6100283;23;20180;-84
2022/05/11 05:54:18;;;;;;;11.20;3.93;;;;;;;;;;6100057;23;20183;-84
2022/05/11 05:56:47;;;;;;;8.90;1.70;;;;;;;;;;6125991;23;20195;-84
2022/05/11 05:59:16;;;;;;;2.87;1.33;;;;;;;;;;6100653;23;20184;-85
2022/05/11 06:01:45;;;;;;;13.27;3.03;;;;;;;;;;6100495;23;20184;-84
2022/05/11 06:04:14;;;;;;;7.67;1.67;;;;;;;;;;6125722;23;20259;-84
2022/05/11 06:06:43;;;;;;;3.67;2.20;;;;;;;;;;6099670;23;20225;-85
2022/05/11 06:09:11;;;;;;;4.93;1.83;;;;;;;;;;6125753;23;20203;-85
2022/05/11 06:11:43;;;;;;;0.70;0.70;;;;;;;;;;6126308;23;20171;-84
2022/05/11 06:14:12;;;;;;;3.43;2.23;;;;;;;;;;6100801;23;20201;-84
2022/05/11 06:16:40;;;;;;;4.43;1.20;;;;;;;;;;6099997;23;20186;-85
2022/05/11 06:19:12;;;;;;;19.27;3.53;;;;;;;;;;6100297;23;20218;-85
2022/05/11 06:21:41;;;;;;;3.93;1.40;;;;;;;;;;6100641;23;20263;-85
2022/05/11 06:24:10;;;;;;;6.53;1.90;;;;;;;;;;6100355;23;20183;-85
2022/05/11 06:26:38;;;;;;;4.00;1.53;;;;;;;;;;6125690;23;20196;-84
2022/05/11 06:29:27;;;;;;;5.30;2.40;;;;;;;;;;6100006;23;20176;-84
2022/05/11 06:31:55;;;;;;;4.07;2.30;;;;;;;;;;6124463;23;20179;-85
2022/05/11 06:34:25;;;;;;;2.93;1.53;;;;;;;;;;6100346;23;20179;-84
2022/05/11 06:36:54;;;;;;;10.60;2.13;;;;;;;;;;6125679;23;20251;-84
2022/05/11 06:39:23;;;;;;;2.43;1.97;;;;;;;;;;6100271;23;20247;-84
2022/05/11 06:41:51;;;;;;;4.80;1.70;;;;;;;;;;6125706;23;20184;-84
2022/05/11 06:44:22;;;;;;;5.03;2.47;;;;;;;;;;6100490;23;20203;-84
2022/05/11 06:47:04;;;;;;;8.47;2.13;;;;;;;;;;6099809;23;20200;-84
2022/05/11 06:49:35;;;;;;;1.30;1.20;;;;;;;;;;6100437;23;20180;-84
2022/05/11 06:52:07;;;;;;;5.23;1.33;;;;;;;;;;6100301;23;20289;-84
2022/05/11 07:24:40;;;;;;;;;;;;;;;;;;;;;
2022/05/11 07:28:07;;;;;;;14.73;2.80;;;;;;;;;;6089362;23;20200;-85
2022/05/11 07:34:09;;;;;;;6.30;2.47;;;;;;;;;;6113488;23;20206;-86
2022/05/11 07:37:18;;;;;;;2.77;2.13;;;;;;;;;;6097329;23;20251;-86
2022/05/11 07:51:30;;;;;;;6.17;2.00;;;;;;;;;;5822621;24;20195;-86
2022/05/11 07:54:38;;;;;;;5.07;1.93;;;;;;;;;;5977396;24;20187;-87
2022/05/11 08:00:45;;;;;;;6.30;1.97;;;;;;;;;;5948426;24;20180;-81
2022/05/11 08:03:14;;;;;;;4.77;1.57;;;;;;;;;;5933388;24;20260;-80
2022/05/11 08:05:43;;;;;;;5.43;2.33;;;;;;;;;;5977745;24;20542;-79
2022/05/11 08:08:16;;;;;;;5.63;1.73;;;;;;;;;;5980235;24;20210;-84
2022/05/11 08:10:46;;;;;;;6.83;1.93;;;;;;;;;;5978659;24;20184;-81
2022/05/11 08:13:16;;;;;;;3.67;2.50;;;;;;;;;;5954742;24;20220;-80
2022/05/11 08:16:18;;;;;;;9.03;3.13;;;;;;;;;;6108608;23;20220;-86
2022/05/11 08:19:18;;;;;;;7.43;2.80;;;;;;;;;;6035942;23;20174;-87
2022/05/11 08:22:25;;;;;;;;;;;;;;;;;;;;;
2022/05/11 15:32:01;;;;;;;6.97;2.50;;;;;;;;;;6133211;23;20215;-82
2022/05/11 15:34:30;;;;;;;6.27;2.27;;;;;;;;;;6148716;23;20206;-84
2022/05/11 15:37:08;;;;;;;3.17;1.50;;;;;;;;;;6153611;23;20234;-85
2022/05/11 15:39:45;;;;;;;5.03;1.90;;;;;;;;;;6129706;23;20191;-85
2022/05/11 15:42:18;;;;;;;5.67;1.67;;;;;;;;;;6128763;23;20235;-85
2022/05/11 15:44:47;;;;;;;6.13;2.20;;;;;;;;;;6130665;23;20182;-85
2022/05/11 15:47:19;;;;;;;3.47;1.80;;;;;;;;;;6131479;23;20203;-84
2022/05/11 15:49:48;;;;;;;5.43;1.73;;;;;;;;;;6131100;23;20179;-85
2022/05/11 15:52:18;;;;;;;3.27;1.77;;;;;;;;;;6156689;23;20168;-85
2022/05/11 15:54:47;;;;;;;2.57;1.70;;;;;;;;;;6156556;23;20175;-85
2022/05/11 16:00:34;;;;;;;9.53;2.93;;;;;;;;;;6128893;23;20179;-85
2022/05/11 16:03:21;;;;;;;2.93;1.27;;;;;;;;;;6130446;23;20177;-85
2022/05/11 16:06:23;;;;;;;6.33;1.57;;;;;;;;;;6130600;23;20176;-84
2022/05/11 16:08:58;;;;;;;4.53;2.67;;;;;;;;;;6130602;23;20269;-85
2022/05/11 16:11:57;;;;;;;3.53;2.00;;;;;;;;;;6130795;23;20183;-85
2022/05/11 16:26:13;;;;;;;10.57;3.03;;;;;;;;;;6003404;23;20187;-84
2022/05/11 16:29:03;;;;;;;2.63;1.60;;;;;;;;;;5987197;23;20220;-84
2022/05/11 16:42:22;;;;;;;3.10;1.90;;;;;;;;;;5980110;24;20245;-84
2022/05/11 16:56:14;;;;;;;2.57;1.37;;;;;;;;;;5950411;23;20179;-84
2022/05/11 17:02:10;;;;;;;7.23;3.00;;;;;;;;;;6135099;23;20189;-84
2022/05/11 17:05:10;;;;;;;5.80;1.63;;;;;;;;;;6155959;23;20192;-84
2022/05/11 17:07:39;;;;;;;4.70;2.00;;;;;;;;;;6179367;23;20198;-84
2022/05/11 17:10:08;;;;;;;4.87;1.80;;;;;;;;;;6154508;23;20183;-84
2022/05/11 17:12:39;;;;;;;1.67;1.57;;;;;;;;;;6154450;23;20258;-84
2022/05/11 17:15:41;;;;;;;7.47;3.43;;;;;;;;;;6156001;23;20182;-84
2022/05/11 17:18:09;;;;;;;7.90;2.83;;;;;;;;;;6174576;23;20269;-84
2022/05/11 17:20:40;;;;;;;8.30;1.90;;;;;;;;;;6154995;23;20189;-84
2022/05/11 17:23:09;;;;;;;5.07;1.37;;;;;;;;;;6154440;23;20176;-83
2022/05/11 17:25:37;;;;;;;15.97;4.33;;;;;;;;;;6154850;23;20178;-85
2022/05/11 17:49:29;;;;;;;5.30;3.67;;;;;;;;;;5929958;23;20182;-85
2022/05/11 17:57:04;;;;;;;9.03;2.00;;;;;;;;;;6008249;23;20196;-85
2022/05/11 18:00:13;;;;;;;6.90;3.57;;;;;;;;;;6034324;23;20257;-85
2022/05/11 18:06:46;;;;;;;5.83;1.90;;;;;;;;;;6066155;23;20181;-85
2022/05/11 18:09:16;;;;;;;4.30;2.00;;;;;;;;;;6064399;23;20207;-84
2022/05/11 18:11:44;;;;;;;8.90;2.07;;;;;;;;;;6070284;23;20184;-85
2022/05/11 18:14:13;;;;;;;5.70;2.50;;;;;;;;;;6094359;23;20184;-85
2022/05/11 18:16:59;;;;;;;8.60;2.77;;;;;;;;;;6070259;23;20293;-85
2022/05/11 18:19:27;;;;;;;6.83;2.93;;;;;;;;;;6070477;23;20177;-85
2022/05/11 18:21:56;;;;;;;5.10;1.73;;;;;;;;;;6087659;23;20186;-85
2022/05/11 18:24:27;;;;;;;9.73;3.50;;;;;;;;;;6154409;23;20190;-85
2022/05/11 18:26:55;;;;;;;3.30;1.93;;;;;;;;;;6154189;23;20482;-85
2022/05/11 18:52:00;;;;;;;6.73;1.97;;;;;;;;;;5941332;23;20254;-85
2022/05/11 18:54:30;;;;;;;6.07;2.53;;;;;;;;;;5984498;23;20197;-84
2022/05/11 18:56:59;;;;;;;13.13;4.50;;;;;;;;;;6058632;23;20180;-85
2022/05/11 19:03:39;;;;;;;6.03;1.60;;;;;;;;;;5926724;24;20217;-84
2022/05/11 19:06:08;;;;;;;6.73;2.30;;;;;;;;;;5967237;24;20281;-85
2022/05/11 19:16:38;;;;;;;9.97;4.00;;;;;;;;;;6065469;23;20184;-85
2022/05/11 19:19:10;;;;;;;15.80;3.90;;;;;;;;;;6067010;23;20170;-86
2022/05/11 19:21:38;;;;;;;6.90;2.30;;;;;;;;;;6141002;23;20186;-85
2022/05/11 19:24:08;;;;;;;10.83;3.00;;;;;;;;;;6156575;23;20178;-85
2022/05/11 19:26:36;;;;;;;7.50;3.13;;;;;;;;;;6131169;23;20186;-85
2022/05/11 19:29:05;;;;;;;7.80;3.43;;;;;;;;;;6180147;23;20206;-85
2022/05/11 19:31:34;;;;;;;11.67;2.83;;;;;;;;;;6131068;23;20182;-85
2022/05/11 19:34:02;;;;;;;15.37;4.13;;;;;;;;;;6155267;23;20187;-85
2022/05/11 19:36:43;;;;;;;2.80;2.20;;;;;;;;;;6155395;23;20292;-85
2022/05/11 19:39:23;;;;;;;10.70;4.00;;;;;;;;;;6156958;23;20170;-85
2022/05/11 19:41:51;;;;;;;6.93;2.93;;;;;;;;;;6156512;23;20177;-85
2022/05/11 19:44:20;;;;;;;16.87;5.37;;;;;;;;;;6155310;23;20174;-84
2022/05/11 19:47:12;;;;;;;8.60;3.47;;;;;;;;;;6155111;23;20230;-85
2022/05/11 19:50:28;;;;;;;6.30;4.17;;;;;;;;;;6154992;23;20216;-85
2022/05/11 19:57:25;;;;;;;11.83;3.53;;;;;;;;;;6156215;23;20412;-85
2022/05/11 20:00:25;;;;;;;6.70;3.63;;;;;;;;;;6177695;23;20179;-85
2022/05/11 20:03:22;;;;;;;9.77;3.13;;;;;;;;;;6155354;23;20175;-85
2022/05/11 20:10:01;;;;;;;10.77;4.97;;;;;;;;;;6011501;23;20217;-85
2022/05/11 20:22:52;;;;;;;7.10;4.90;;;;;;;;;;5875771;24;20195;-85
2022/05/11 20:25:21;;;;;;;12.90;5.97;;;;;;;;;;5924279;24;20184;-85
2022/05/11 20:27:49;;;;;;;4.27;3.70;;;;;;;;;;5981251;24;20187;-85
2022/05/11 20:30:18;;;;;;;13.43;5.33;;;;;;;;;;5981429;24;20222;-85
2022/05/11 20:36:38;;;;;;;9.87;4.00;;;;;;;;;;5816943;24;20225;-84
2022/05/11 20:39:07;;;;;;;13.40;4.93;;;;;;;;;;5848949;24;20176;-85
2022/05/11 20:41:35;;;;;;;12.70;2.67;;;;;;;;;;5953143;24;20190;-85
2022/05/11 20:44:04;;;;;;;13.27;4.07;;;;;;;;;;5953422;24;20187;-85
2022/05/11 20:46:34;;;;;;;8.53;4.23;;;;;;;;;;5952967;24;20183;-85
2022/05/11 20:49:32;;;;;;;12.97;3.97;;;;;;;;;;5980089;23;20200;-84
2022/05/11 20:56:35;;;;;;;14.97;4.83;;;;;;;;;;6078994;23;20185;-85
2022/05/11 21:10:12;;;;;;;11.70;3.63;;;;;;;;;;6009890;23;20267;-84
2022/05/11 21:12:42;;;;;;;20.97;4.27;;;;;;;;;;6013511;23;20278;-84
2022/05/11 21:15:11;;;;;;;10.93;4.80;;;;;;;;;;6013646;23;20183;-85
2022/05/11 21:17:41;;;;;;;6.10;2.87;;;;;;;;;;6037482;23;20182;-85
2022/05/11 21:20:12;;;;;;;4.10;2.50;;;;;;;;;;6037440;23;20175;-84
2022/05/11 21:22:40;;;;;;;7.40;2.10;;;;;;;;;;6013589;23;20191;-85
2022/05/11 21:25:09;;;;;;;5.20;2.07;;;;;;;;;;6013423;23;20179;-84
2022/05/11 21:27:39;;;;;;;11.03;3.03;;;;;;;;;;6037149;23;20230;-84
2022/05/11 21:30:10;;;;;;;2.50;1.33;;;;;;;;;;6013276;23;20222;-85
2022/05/11 21:32:38;;;;;;;7.93;2.10;;;;;;;;;;6063372;23;20216;-84
2022/05/11 21:35:08;;;;;;;9.73;2.27;;;;;;;;;;6100774;23;20178;-84
2022/05/11 21:37:37;;;;;;;2.47;1.20;;;;;;;;;;6111871;23;20212;-85
2022/05/11 21:40:09;;;;;;;8.07;1.90;;;;;;;;;;6100219;23;20170;-84
2022/05/11 21:42:39;;;;;;;3.13;2.63;;;;;;;;;;6100873;23;20256;-84
2022/05/11 21:45:09;;;;;;;9.17;2.47;;;;;;;;;;6100544;23;20181;-84
2022/05/11 23:02:49;;;;;;;2.70;1.40;;;;;;;;;;5866593;24;20183;-84
2022/05/11 23:05:18;;;;;;;2.80;1.27;;;;;;;;;;5993815;23;20215;-83
